createdAt,value
2023-07-01T00:01:52.903Z,100279.63
2023-07-01T00:04:39.810Z,100281.08
2023-07-01T00:07:26.844Z,100283.08
2023-07-01T00:10:13.424Z,100281.65
2023-07-01T00:13:00.424Z,100283.13
2023-07-01T00:15:47.090Z,100285.27
2023-07-01T00:18:34.423Z,100278.70
2023-07-01T00:21:21.226Z,100271.23
2023-07-01T00:24:07.515Z,100260.39
2023-07-01T00:26:53.937Z,100258.96
2023-07-01T00:29:40.628Z,100264.98
2023-07-01T00:32:27.521Z,100268.35
2023-07-01T00:35:14.624Z,100272.61
2023-07-01T00:38:01.385Z,100272.61
2023-07-01T00:40:48.727Z,100273.73
2023-07-01T00:43:35.606Z,100265.12
2023-07-01T00:46:23.231Z,100276.93
2023-07-01T00:49:10.094Z,100275.98
2023-07-01T00:51:58.146Z,100270.61
2023-07-01T00:54:45.657Z,100273.84
2023-07-01T00:57:33.931Z,100270.25
2023-07-01T01:00:20.620Z,100266.20
2023-07-01T01:03:23.005Z,100268.30
2023-07-01T01:06:24.884Z,100267.34
2023-07-01T01:09:46.054Z,100263.49
2023-07-01T01:12:34.713Z,100254.87
2023-07-01T01:15:21.686Z,100265.61
2023-07-01T01:18:10.984Z,100270.27
2023-07-01T01:20:58.600Z,100269.70
2023-07-01T01:24:00.073Z,100268.98
2023-07-01T01:26:50.377Z,100261.85
2023-07-01T01:29:37.084Z,100262.23
2023-07-01T01:32:24.283Z,100258.88
2023-07-01T01:35:10.916Z,100251.06
2023-07-01T01:38:06.646Z,100251.25
2023-07-01T01:41:01.763Z,100246.41
2023-07-01T01:44:00.052Z,100248.16
2023-07-01T01:46:47.663Z,100260.06
2023-07-01T01:49:35.669Z,100261.44
2023-07-01T01:52:23.746Z,100263.16
2023-07-01T01:55:13.197Z,100264.55
2023-07-01T01:58:00.698Z,100266.91
2023-07-01T02:00:47.948Z,100264.02
2023-07-01T02:03:36.638Z,100265.84
2023-07-01T02:06:23.416Z,100269.58
2023-07-01T02:09:10.127Z,100269.80
2023-07-01T02:11:58.517Z,100269.64
2023-07-01T02:14:45.897Z,100267.12
2023-07-01T02:17:32.243Z,100266.74
2023-07-01T02:20:20.116Z,100269.20
2023-07-01T02:23:06.958Z,100266.84
2023-07-01T02:25:55.193Z,100262.23
2023-07-01T02:28:41.496Z,100263.30
2023-07-01T02:31:28.480Z,100266.65
2023-07-01T02:34:15.803Z,100266.36
2023-07-01T02:37:02.492Z,100262.66
2023-07-01T02:39:48.982Z,100269.51
2023-07-01T02:42:35.497Z,100264.84
2023-07-01T02:45:21.958Z,100259.85
2023-07-01T02:48:08.815Z,100259.67
2023-07-01T02:50:55.404Z,100258.70
2023-07-01T02:53:42.480Z,100248.23
2023-07-01T02:56:28.995Z,100249.95
2023-07-01T02:59:15.940Z,100257.85
2023-07-01T03:02:06.340Z,100244.07
2023-07-01T03:04:52.736Z,100260.86
2023-07-01T03:07:39.881Z,100259.70
2023-07-01T03:10:27.051Z,100258.73
2023-07-01T03:13:13.389Z,100258.61
2023-07-01T03:16:02.226Z,100253.67
2023-07-01T03:18:49.078Z,100250.52
2023-07-01T03:21:37.572Z,100250.96
2023-07-01T03:24:24.138Z,100251.02
2023-07-01T03:27:13.879Z,100256.77
2023-07-01T03:30:01.382Z,100250.86
2023-07-01T03:32:49.238Z,100240.12
2023-07-01T03:35:35.842Z,100249.64
2023-07-01T03:38:23.200Z,100249.68
2023-07-01T03:41:09.838Z,100250.98
2023-07-01T03:43:57.514Z,100254.99
2023-07-01T03:46:44.087Z,100251.69
2023-07-01T03:49:31.511Z,100246.90
2023-07-01T03:52:18.156Z,100244.80
2023-07-01T03:55:09.108Z,100237.65
2023-07-01T03:57:56.045Z,100237.33
2023-07-01T04:00:42.426Z,100232.58
2023-07-01T04:03:29.192Z,100233.52
2023-07-01T04:06:15.793Z,100234.08
2023-07-01T04:09:02.116Z,100237.30
2023-07-01T04:11:48.891Z,100231.98
2023-07-01T04:14:35.609Z,100230.93
2023-07-01T04:17:22.176Z,100238.00
2023-07-01T04:20:10.899Z,100236.16
2023-07-01T04:22:57.774Z,100236.20
2023-07-01T04:25:45.475Z,100233.13
2023-07-01T04:28:31.843Z,100220.00
2023-07-01T04:31:18.281Z,100216.84
2023-07-01T04:34:04.978Z,100222.60
2023-07-01T04:36:51.467Z,100231.46
2023-07-01T04:39:37.904Z,100231.23
2023-07-01T04:42:24.568Z,100233.67
2023-07-01T04:45:11.102Z,100231.04
2023-07-01T04:47:57.605Z,100230.20
2023-07-01T04:50:44.560Z,100224.66
2023-07-01T04:53:31.239Z,100241.71
2023-07-01T04:56:18.170Z,100245.54
2023-07-01T04:59:04.883Z,100241.05
2023-07-01T05:01:51.746Z,100239.84
2023-07-01T05:04:39.256Z,100237.23
2023-07-01T05:07:26.224Z,100239.28
2023-07-01T05:10:12.995Z,100238.77
2023-07-01T05:12:59.280Z,100231.81
2023-07-01T05:15:45.968Z,100234.71
2023-07-01T05:18:32.255Z,100227.59
2023-07-01T05:21:19.040Z,100233.39
2023-07-01T05:24:05.699Z,100233.62
2023-07-01T05:26:54.003Z,100232.41
2023-07-01T05:29:40.324Z,100234.05
2023-07-01T05:32:27.364Z,100234.45
2023-07-01T05:35:16.307Z,100231.23
2023-07-01T05:38:14.081Z,100230.58
2023-07-01T05:41:00.827Z,100221.46
2023-07-01T05:43:47.343Z,100223.09
2023-07-01T05:46:34.372Z,100219.86
2023-07-01T05:49:21.249Z,100220.55
2023-07-01T05:52:08.068Z,100224.67
2023-07-01T05:54:54.527Z,100221.29
2023-07-01T05:57:41.226Z,100223.28
2023-07-01T06:00:27.741Z,100224.73
2023-07-01T06:03:15.732Z,100222.42
2023-07-01T06:06:02.788Z,100221.89
2023-07-01T06:08:49.432Z,100220.45
2023-07-01T06:11:38.247Z,100219.37
2023-07-01T06:14:24.695Z,100220.45
2023-07-01T06:17:12.680Z,100217.58
2023-07-01T06:19:59.350Z,100221.71
2023-07-01T06:22:45.844Z,100222.77
2023-07-01T06:25:33.428Z,100225.29
2023-07-01T06:28:22.724Z,100226.52
2023-07-01T06:31:11.498Z,100226.50
2023-07-01T06:33:58.251Z,100231.31
2023-07-01T06:36:45.162Z,100232.35
2023-07-01T06:39:31.994Z,100233.58
2023-07-01T06:42:19.518Z,100228.92
2023-07-01T06:45:06.819Z,100227.80
2023-07-01T06:47:53.748Z,100225.30
2023-07-01T06:50:40.106Z,100230.92
2023-07-01T06:53:26.657Z,100231.86
2023-07-01T06:56:13.517Z,100227.38
2023-07-01T06:58:59.900Z,100227.16
2023-07-01T07:01:46.473Z,100221.20
2023-07-01T07:04:33.430Z,100219.75
2023-07-01T07:07:20.260Z,100217.73
2023-07-01T07:10:07.598Z,100220.38
2023-07-01T07:12:54.238Z,100212.94
2023-07-01T07:15:41.785Z,100214.27
2023-07-01T07:18:29.564Z,100216.23
2023-07-01T07:21:16.587Z,100216.21
2023-07-01T07:24:03.400Z,100214.34
2023-07-01T07:26:59.359Z,100209.39
2023-07-01T07:29:46.061Z,100209.64
2023-07-01T07:32:32.867Z,100201.85
2023-07-01T07:35:20.288Z,100200.02
2023-07-01T07:38:06.764Z,100203.13
2023-07-01T07:40:53.050Z,100202.15
2023-07-01T07:43:39.611Z,100196.67
2023-07-01T07:46:26.170Z,100195.95
2023-07-01T07:49:15.037Z,100190.94
2023-07-01T07:52:02.774Z,100189.96
2023-07-01T07:54:50.372Z,100188.23
2023-07-01T07:57:37.885Z,100184.77
2023-07-01T08:00:31.761Z,100173.88
2023-07-01T08:03:18.534Z,100179.21
2023-07-01T08:06:05.303Z,100167.54
2023-07-01T08:08:51.892Z,100176.14
2023-07-01T08:11:38.647Z,100177.64
2023-07-01T08:14:26.628Z,100172.69
2023-07-01T08:17:13.573Z,100171.33
2023-07-01T08:20:00.183Z,100170.95
2023-07-01T08:22:46.877Z,100164.67
2023-07-01T08:25:33.740Z,100166.87
2023-07-01T08:28:20.221Z,100167.04
2023-07-01T08:31:06.931Z,100165.87
2023-07-01T08:33:53.676Z,100163.23
2023-07-01T08:36:40.361Z,100161.70
2023-07-01T08:39:27.296Z,100154.34
2023-07-01T08:42:19.906Z,100157.81
2023-07-01T08:45:08.434Z,100159.69
2023-07-01T08:47:59.157Z,100159.63
2023-07-01T08:50:57.384Z,100157.68
2023-07-01T08:53:44.444Z,100162.33
2023-07-01T08:56:31.517Z,100160.00
2023-07-01T08:59:19.436Z,100155.61
2023-07-01T09:02:07.547Z,100152.50
2023-07-01T09:04:54.108Z,100154.44
2023-07-01T09:07:42.682Z,100153.10
2023-07-01T09:10:29.286Z,100147.17
2023-07-01T09:13:16.987Z,100141.21
2023-07-01T09:16:03.739Z,100140.66
2023-07-01T09:19:04.491Z,100144.89
2023-07-01T09:21:51.446Z,100138.48
2023-07-01T09:24:40.902Z,100135.95
2023-07-01T09:27:50.542Z,100135.78
2023-07-01T09:30:37.848Z,100126.66
2023-07-01T09:33:24.617Z,100119.30
2023-07-01T09:36:24.565Z,100116.52
2023-07-01T09:39:13.646Z,100111.67
2023-07-01T09:42:05.896Z,100115.67
2023-07-01T09:45:06.165Z,100110.67
2023-07-01T09:47:56.347Z,100110.64
2023-07-01T09:50:43.332Z,100104.66
2023-07-01T09:53:36.033Z,100103.92
2023-07-01T09:56:23.347Z,100100.70
2023-07-01T09:59:11.656Z,100098.55
2023-07-01T10:02:02.961Z,100098.48
2023-07-01T10:04:53.591Z,100103.96
2023-07-01T10:07:44.827Z,100093.31
2023-07-01T10:10:31.862Z,100093.16
2023-07-01T10:13:18.486Z,100085.84
2023-07-01T10:16:08.022Z,100091.40
2023-07-01T10:18:54.786Z,100089.72
2023-07-01T10:21:41.857Z,100088.56
2023-07-01T10:24:40.740Z,100083.00
2023-07-01T10:27:46.126Z,100077.86
2023-07-01T10:30:55.296Z,100076.06
2023-07-01T10:33:42.109Z,100070.02
2023-07-01T10:36:28.681Z,100066.64
2023-07-01T10:39:33.837Z,100062.98
2023-07-01T10:42:34.438Z,100064.20
2023-07-01T10:45:27.039Z,100059.38
2023-07-01T10:48:17.529Z,100047.89
2023-07-01T10:51:08.767Z,100044.46
2023-07-01T10:54:02.213Z,100041.30
2023-07-01T10:57:13.654Z,100039.77
2023-07-01T11:00:49.349Z,100035.52
2023-07-01T11:03:39.129Z,100035.73
2023-07-01T11:06:25.939Z,100034.62
2023-07-01T11:09:14.225Z,100034.02
2023-07-01T11:12:04.536Z,100033.02
2023-07-01T11:14:56.593Z,100025.04
2023-07-01T11:17:54.147Z,100026.19
2023-07-01T11:20:49.554Z,100013.13
2023-07-01T11:23:36.058Z,100021.27
2023-07-01T11:26:29.976Z,100018.23
2023-07-01T11:29:18.910Z,100012.84
2023-07-01T11:32:08.219Z,100009.10
2023-07-01T11:34:58.589Z,100008.64
2023-07-01T11:37:45.413Z,100004.44
2023-07-01T11:40:41.476Z,100002.48
2023-07-01T11:43:28.640Z,99998.14
2023-07-01T11:46:15.320Z,99995.48
2023-07-01T11:49:16.554Z,99995.84
2023-07-01T11:52:05.576Z,99993.61
2023-07-01T11:54:56.808Z,99992.06
2023-07-01T11:57:44.332Z,99987.11
2023-07-01T12:00:35.325Z,99984.24
2023-07-01T12:03:25.673Z,99983.51
2023-07-01T12:06:24.174Z,99983.33
2023-07-01T12:09:29.854Z,99968.77
2023-07-01T12:12:19.648Z,99971.04
2023-07-01T12:15:12.451Z,99976.11
2023-07-01T12:18:28.580Z,99979.37
2023-07-01T12:21:18.913Z,99966.52
2023-07-01T12:24:20.796Z,99963.25
2023-07-01T12:27:08.256Z,99959.14
2023-07-01T12:29:55.636Z,99956.74
2023-07-01T12:32:42.244Z,99946.94
2023-07-01T12:35:28.959Z,99945.88
2023-07-01T12:38:15.895Z,99941.13
2023-07-01T12:41:04.062Z,99946.33
2023-07-01T12:43:50.534Z,99945.25
2023-07-01T12:46:37.440Z,99927.81
2023-07-01T12:49:24.090Z,99923.98
2023-07-01T12:52:10.518Z,99923.30
2023-07-01T12:54:56.874Z,99914.64
2023-07-01T12:57:43.846Z,99912.77
2023-07-01T13:00:30.551Z,99910.70
2023-07-01T13:03:16.909Z,99908.89
2023-07-01T13:06:31.892Z,99901.53
2023-07-01T13:09:39.543Z,99894.77
2023-07-01T13:12:28.900Z,99898.06
2023-07-01T13:15:52.662Z,99897.59
2023-07-01T13:18:42.712Z,99891.83
2023-07-01T13:21:29.575Z,99894.79
2023-07-01T13:24:17.343Z,99888.88
2023-07-01T13:27:08.391Z,99885.95
2023-07-01T13:29:54.929Z,99883.02
2023-07-01T13:32:42.281Z,99887.73
2023-07-01T13:35:36.016Z,99884.27
2023-07-01T13:38:23.803Z,99880.60
2023-07-01T13:41:11.118Z,99872.04
2023-07-01T13:44:04.178Z,99865.76
2023-07-01T13:46:52.937Z,99858.47
2023-07-01T13:49:40.486Z,99858.42
2023-07-01T13:52:27.794Z,99856.34
2023-07-01T13:55:18.870Z,99847.06
2023-07-01T13:58:06.516Z,99840.11
2023-07-01T14:00:55.129Z,99844.56
2023-07-01T14:03:54.728Z,99842.46
2023-07-01T14:06:42.202Z,99840.97
2023-07-01T14:09:31.013Z,99841.14
2023-07-01T14:12:17.999Z,99832.89
2023-07-01T14:15:07.987Z,99830.09
2023-07-01T14:17:54.929Z,99831.81
2023-07-01T14:21:03.644Z,99821.58
2023-07-01T14:23:56.477Z,99822.23
2023-07-01T14:26:47.201Z,99820.88
2023-07-01T14:29:41.988Z,99813.42
2023-07-01T14:32:28.850Z,99814.65
2023-07-01T14:35:20.683Z,99811.33
2023-07-01T14:38:08.425Z,99806.06
2023-07-01T14:40:55.294Z,99805.98
2023-07-01T14:43:42.465Z,99800.68
2023-07-01T14:46:40.833Z,99795.63
2023-07-01T14:49:27.769Z,99796.98
2023-07-01T14:52:14.778Z,99795.48
2023-07-01T14:55:02.917Z,99793.43
2023-07-01T14:57:49.883Z,99788.65
2023-07-01T15:00:36.756Z,99790.77
2023-07-01T15:03:23.536Z,99787.85
2023-07-01T15:06:12.372Z,99789.20
2023-07-01T15:09:01.412Z,99782.79
2023-07-01T15:11:48.272Z,99776.71
2023-07-01T15:14:34.800Z,99772.05
2023-07-01T15:17:22.600Z,99773.42
2023-07-01T15:20:09.881Z,99765.77
2023-07-01T15:22:56.705Z,99766.41
2023-07-01T15:25:43.902Z,99768.80
2023-07-01T15:28:32.068Z,99764.70
2023-07-01T15:31:18.710Z,99766.66
2023-07-01T15:34:05.128Z,99766.02
2023-07-01T15:36:52.089Z,99768.39
2023-07-01T15:39:38.782Z,99759.89
2023-07-01T15:42:26.304Z,99755.95
2023-07-01T15:45:13.484Z,99757.45
2023-07-01T15:48:00.621Z,99756.17
2023-07-01T15:50:47.440Z,99753.21
2023-07-01T15:53:34.844Z,99747.33
2023-07-01T15:56:21.671Z,99743.94
2023-07-01T15:59:08.984Z,99737.16
2023-07-01T16:01:56.658Z,99738.95
2023-07-01T16:04:44.803Z,99729.16
2023-07-01T16:07:37.484Z,99730.98
2023-07-01T16:10:25.783Z,99728.31
2023-07-01T16:13:37.879Z,99728.31
2023-07-01T16:16:42.902Z,99733.94
2023-07-01T16:19:40.771Z,99728.18
2023-07-01T16:22:27.891Z,99728.20
2023-07-01T16:25:14.780Z,99729.54
2023-07-01T16:28:01.448Z,99735.36
2023-07-01T16:30:48.697Z,99737.70
2023-07-01T16:33:37.155Z,99733.67
2023-07-01T16:36:31.308Z,99732.39
2023-07-01T16:39:18.980Z,99732.34
2023-07-01T16:42:05.970Z,99730.48
2023-07-01T16:44:54.876Z,99734.11
2023-07-01T16:47:41.245Z,99730.64
2023-07-01T16:50:55.223Z,99725.87
2023-07-01T16:53:45.102Z,99725.53
2023-07-01T16:56:45.874Z,99726.54
2023-07-01T16:59:39.750Z,99727.64
2023-07-01T17:02:32.196Z,99729.81
2023-07-01T17:05:27.862Z,99728.35
2023-07-01T17:08:32.532Z,99736.56
2023-07-01T17:11:46.861Z,99736.27
2023-07-01T17:14:46.478Z,99735.73
2023-07-01T17:17:43.148Z,99732.42
2023-07-01T17:20:30.164Z,99738.05
2023-07-01T17:23:16.745Z,99732.52
2023-07-01T17:26:03.458Z,99725.30
2023-07-01T17:28:50.176Z,99727.48
2023-07-01T17:31:36.899Z,99725.65
2023-07-01T17:34:33.817Z,99727.25
2023-07-01T17:37:20.104Z,99724.95
2023-07-01T17:40:07.641Z,99713.23
2023-07-01T17:42:54.638Z,99722.66
2023-07-01T17:45:41.390Z,99724.04
2023-07-01T17:48:28.172Z,99721.45
2023-07-01T17:51:14.540Z,99719.15
2023-07-01T17:54:01.072Z,99721.64
2023-07-01T17:56:49.365Z,99718.92
2023-07-01T17:59:36.076Z,99722.45
2023-07-01T18:02:23.202Z,99721.32
2023-07-01T18:05:10.719Z,99715.77
2023-07-01T18:07:57.855Z,99714.98
2023-07-01T18:10:44.503Z,99712.94
2023-07-01T18:13:31.368Z,99714.09
2023-07-01T18:16:18.027Z,99718.21
2023-07-01T18:19:05.034Z,99717.66
2023-07-01T18:21:52.232Z,99718.33
2023-07-01T18:24:39.075Z,99715.80
2023-07-01T18:27:28.485Z,99718.39
2023-07-01T18:30:15.686Z,99721.05
2023-07-01T18:33:02.673Z,99719.59
2023-07-01T18:35:51.196Z,99720.42
2023-07-01T18:38:39.801Z,99722.15
2023-07-01T18:41:28.920Z,99720.46
2023-07-01T18:44:15.733Z,99725.22
2023-07-01T18:47:02.240Z,99720.99
2023-07-01T18:49:48.825Z,99718.36
2023-07-01T18:52:35.635Z,99715.92
2023-07-01T18:55:22.383Z,99722.33
2023-07-01T18:58:09.822Z,99719.75
2023-07-01T19:00:56.581Z,99716.66
2023-07-01T19:03:45.091Z,99722.86
2023-07-01T19:06:31.897Z,99720.61
2023-07-01T19:09:18.636Z,99723.39
2023-07-01T19:12:05.883Z,99721.86
2023-07-01T19:14:52.124Z,99724.08
2023-07-01T19:17:38.697Z,99724.30
2023-07-01T19:20:52.135Z,99724.17
2023-07-01T19:23:40.029Z,99729.89
2023-07-01T19:26:27.204Z,99723.53
2023-07-01T19:29:14.418Z,99726.59
2023-07-01T19:32:03.516Z,99728.98
2023-07-01T19:34:49.981Z,99729.58
2023-07-01T19:37:36.300Z,99726.39
2023-07-01T19:40:23.411Z,99731.11
2023-07-01T19:43:10.900Z,99730.23
2023-07-01T19:45:57.548Z,99729.77
2023-07-01T19:48:51.521Z,99727.48
2023-07-01T19:51:39.943Z,99733.30
2023-07-01T19:54:27.350Z,99732.64
2023-07-01T19:57:13.942Z,99737.24
2023-07-01T20:00:00.832Z,99745.77
2023-07-01T20:02:48.841Z,99743.69
2023-07-01T20:05:47.700Z,99745.84
2023-07-01T20:08:34.642Z,99742.35
2023-07-01T20:11:22.190Z,99737.80
2023-07-01T20:14:09.129Z,99738.84
2023-07-01T20:16:56.086Z,99732.44
2023-07-01T20:19:42.726Z,99731.96
2023-07-01T20:22:29.456Z,99731.64
2023-07-01T20:25:16.291Z,99731.30
2023-07-01T20:28:02.821Z,99730.81
2023-07-01T20:30:49.660Z,99732.46
2023-07-01T20:33:37.078Z,99727.13
2023-07-01T20:36:23.788Z,99726.23
2023-07-01T20:39:11.401Z,99724.64
2023-07-01T20:42:07.397Z,99722.87
2023-07-01T20:44:55.209Z,99722.35
2023-07-01T20:47:43.840Z,99719.16
2023-07-01T20:50:30.748Z,99715.05
2023-07-01T20:53:17.333Z,99715.46
2023-07-01T20:56:04.074Z,99713.72
2023-07-01T20:58:50.435Z,99712.67
2023-07-01T21:01:39.584Z,99712.32
2023-07-01T21:04:26.263Z,99712.14
2023-07-01T21:07:13.097Z,99705.92
2023-07-01T21:10:00.118Z,99705.53
2023-07-01T21:12:51.238Z,99704.46
2023-07-01T21:15:38.556Z,99700.14
2023-07-01T21:18:25.057Z,99705.35
2023-07-01T21:21:11.696Z,99702.83
2023-07-01T21:23:58.237Z,99698.20
2023-07-01T21:26:45.591Z,99695.31
2023-07-01T21:29:31.766Z,99687.78
2023-07-01T21:32:18.285Z,99682.95
2023-07-01T21:35:07.055Z,99684.06
2023-07-01T21:37:53.386Z,99681.04
2023-07-01T21:40:45.014Z,99678.94
2023-07-01T21:43:32.837Z,99674.11
2023-07-01T21:46:19.518Z,99675.05
2023-07-01T21:49:08.202Z,99672.77
2023-07-01T21:51:54.828Z,99673.35
2023-07-01T21:54:41.470Z,99675.70
2023-07-01T21:57:27.709Z,99675.35
2023-07-01T22:00:14.863Z,99673.27
2023-07-01T22:03:01.372Z,99678.16
2023-07-01T22:05:51.720Z,99673.70
2023-07-01T22:08:38.567Z,99674.66
2023-07-01T22:11:25.596Z,99675.40
2023-07-01T22:14:13.312Z,99676.84
2023-07-01T22:17:00.072Z,99676.12
2023-07-01T22:19:46.255Z,99671.67
2023-07-01T22:22:32.633Z,99675.05
2023-07-01T22:25:20.308Z,99676.09
2023-07-01T22:28:06.913Z,99674.10
2023-07-01T22:30:53.477Z,99674.29
2023-07-01T22:33:39.972Z,99671.61
2023-07-01T22:36:27.065Z,99673.78
2023-07-01T22:39:13.839Z,99670.23
2023-07-01T22:42:00.202Z,99670.05
2023-07-01T22:44:46.376Z,99670.31
2023-07-01T22:47:32.816Z,99668.66
2023-07-01T22:50:21.547Z,99661.55
2023-07-01T22:53:08.447Z,99664.06
2023-07-01T22:55:54.669Z,99663.52
2023-07-01T22:58:40.965Z,99662.84
2023-07-01T23:01:27.387Z,99666.45
2023-07-01T23:04:14.323Z,99664.69
2023-07-01T23:07:01.179Z,99657.55
2023-07-01T23:09:47.793Z,99655.59
2023-07-01T23:12:35.549Z,99648.60
2023-07-01T23:15:22.476Z,99645.92
2023-07-01T23:18:10.331Z,99637.51
2023-07-01T23:20:57.227Z,99638.07
2023-07-01T23:23:43.662Z,99645.10
2023-07-01T23:26:30.133Z,99639.05
2023-07-01T23:29:16.354Z,99646.28
2023-07-01T23:32:02.911Z,99645.94
2023-07-01T23:34:51.634Z,99636.98
2023-07-01T23:37:38.404Z,99639.16
2023-07-01T23:40:24.960Z,99638.10
2023-07-01T23:43:11.616Z,99644.39
2023-07-01T23:45:58.144Z,99644.60
2023-07-01T23:48:44.407Z,99643.20
2023-07-01T23:51:30.966Z,99635.69
2023-07-01T23:54:17.544Z,99632.29
2023-07-01T23:57:04.190Z,99628.56
2023-07-01T23:59:50.880Z,99631.61
